sensor_id;sensor_type;location;lat;lon;timestamp;temperature;humidity
52036;DHT22;38046;49.448;32.074;2023-04-20T00:01:44;11.80;78.40
52036;DHT22;38046;49.448;32.074;2023-04-20T00:04:10;11.80;78.50
52036;DHT22;38046;49.448;32.074;2023-04-20T00:06:36;11.80;78.50
52036;DHT22;38046;49.448;32.074;2023-04-20T00:09:02;11.80;78.60
52036;DHT22;38046;49.448;32.074;2023-04-20T00:11:29;11.70;78.60
52036;DHT22;38046;49.448;32.074;2023-04-20T00:13:55;11.70;78.60
52036;DHT22;38046;49.448;32.074;2023-04-20T00:16:20;11.70;78.70
52036;DHT22;38046;49.448;32.074;2023-04-20T00:18:46;11.60;78.80
52036;DHT22;38046;49.448;32.074;2023-04-20T00:21:12;11.60;78.70
52036;DHT22;38046;49.448;32.074;2023-04-20T00:23:38;11.60;78.80
52036;DHT22;38046;49.448;32.074;2023-04-20T00:26:03;11.50;78.90
52036;DHT22;38046;49.448;32.074;2023-04-20T00:28:29;11.50;79.00
52036;DHT22;38046;49.448;32.074;2023-04-20T00:30:55;11.50;79.30
52036;DHT22;38046;49.448;32.074;2023-04-20T00:33:21;11.50;79.40
52036;DHT22;38046;49.448;32.074;2023-04-20T00:35:47;11.50;79.40
52036;DHT22;38046;49.448;32.074;2023-04-20T00:38:12;11.50;79.40
52036;DHT22;38046;49.448;32.074;2023-04-20T00:40:38;11.40;79.40
52036;DHT22;38046;49.448;32.074;2023-04-20T00:43:11;11.50;79.50
52036;DHT22;38046;49.448;32.074;2023-04-20T00:45:37;11.40;79.30
52036;DHT22;38046;49.448;32.074;2023-04-20T00:48:03;11.40;79.30
52036;DHT22;38046;49.448;32.074;2023-04-20T00:50:30;11.40;79.50
52036;DHT22;38046;49.448;32.074;2023-04-20T00:52:55;11.40;79.50
52036;DHT22;38046;49.448;32.074;2023-04-20T00:55:21;11.40;79.70
52036;DHT22;38046;49.448;32.074;2023-04-20T00:57:48;11.30;79.80
52036;DHT22;38046;49.448;32.074;2023-04-20T01:00:14;11.30;79.90
52036;DHT22;38046;49.448;32.074;2023-04-20T01:02:39;11.30;80.10
52036;DHT22;38046;49.448;32.074;2023-04-20T01:05:06;11.30;80.20
52036;DHT22;38046;49.448;32.074;2023-04-20T01:07:31;11.30;80.40
52036;DHT22;38046;49.448;32.074;2023-04-20T01:09:57;11.30;80.90
52036;DHT22;38046;49.448;32.074;2023-04-20T01:12:23;11.20;81.10
52036;DHT22;38046;49.448;32.074;2023-04-20T01:14:48;11.20;81.40
52036;DHT22;38046;49.448;32.074;2023-04-20T01:17:14;11.20;81.50
52036;DHT22;38046;49.448;32.074;2023-04-20T01:19:40;11.20;81.70
52036;DHT22;38046;49.448;32.074;2023-04-20T01:22:07;11.20;82.00
52036;DHT22;38046;49.448;32.074;2023-04-20T01:24:32;11.10;82.00
52036;DHT22;38046;49.448;32.074;2023-04-20T01:26:59;11.10;82.40
52036;DHT22;38046;49.448;32.074;2023-04-20T01:29:26;11.10;82.60
52036;DHT22;38046;49.448;32.074;2023-04-20T01:31:51;11.10;82.80
52036;DHT22;38046;49.448;32.074;2023-04-20T01:34:17;11.10;83.20
52036;DHT22;38046;49.448;32.074;2023-04-20T01:36:43;11.00;83.50
52036;DHT22;38046;49.448;32.074;2023-04-20T01:39:09;11.00;83.80
52036;DHT22;38046;49.448;32.074;2023-04-20T01:41:35;11.00;84.10
52036;DHT22;38046;49.448;32.074;2023-04-20T01:44:01;11.00;84.30
52036;DHT22;38046;49.448;32.074;2023-04-20T01:46:27;11.00;84.70
52036;DHT22;38046;49.448;32.074;2023-04-20T01:48:52;10.90;85.00
52036;DHT22;38046;49.448;32.074;2023-04-20T01:51:18;10.90;85.20
52036;DHT22;38046;49.448;32.074;2023-04-20T01:53:43;10.90;85.30
52036;DHT22;38046;49.448;32.074;2023-04-20T01:56:10;10.90;85.50
52036;DHT22;38046;49.448;32.074;2023-04-20T01:58:35;10.90;85.90
52036;DHT22;38046;49.448;32.074;2023-04-20T02:01:01;10.90;86.10
52036;DHT22;38046;49.448;32.074;2023-04-20T02:03:27;10.80;86.10
52036;DHT22;38046;49.448;32.074;2023-04-20T02:05:53;10.80;86.80
52036;DHT22;38046;49.448;32.074;2023-04-20T02:08:19;10.80;86.30
52036;DHT22;38046;49.448;32.074;2023-04-20T02:10:45;10.80;86.50
52036;DHT22;38046;49.448;32.074;2023-04-20T02:13:11;10.80;86.60
52036;DHT22;38046;49.448;32.074;2023-04-20T02:15:36;10.80;86.90
52036;DHT22;38046;49.448;32.074;2023-04-20T02:18:02;10.70;87.10
52036;DHT22;38046;49.448;32.074;2023-04-20T02:20:28;10.70;87.40
52036;DHT22;38046;49.448;32.074;2023-04-20T02:22:53;10.70;87.90
52036;DHT22;38046;49.448;32.074;2023-04-20T02:25:19;10.70;88.30
52036;DHT22;38046;49.448;32.074;2023-04-20T02:27:45;10.60;88.40
52036;DHT22;38046;49.448;32.074;2023-04-20T02:30:11;10.60;88.90
52036;DHT22;38046;49.448;32.074;2023-04-20T02:32:37;10.60;89.20
52036;DHT22;38046;49.448;32.074;2023-04-20T02:35:03;10.50;89.40
52036;DHT22;38046;49.448;32.074;2023-04-20T02:37:29;10.50;89.60
52036;DHT22;38046;49.448;32.074;2023-04-20T02:39:55;10.50;89.80
52036;DHT22;38046;49.448;32.074;2023-04-20T02:42:21;10.50;89.90
52036;DHT22;38046;49.448;32.074;2023-04-20T02:44:46;10.50;90.00
52036;DHT22;38046;49.448;32.074;2023-04-20T02:47:12;10.50;90.00
52036;DHT22;38046;49.448;32.074;2023-04-20T02:49:37;10.50;90.10
52036;DHT22;38046;49.448;32.074;2023-04-20T02:52:04;10.50;90.10
52036;DHT22;38046;49.448;32.074;2023-04-20T02:54:30;10.50;90.20
52036;DHT22;38046;49.448;32.074;2023-04-20T02:56:55;10.50;90.20
52036;DHT22;38046;49.448;32.074;2023-04-20T02:59:23;10.50;90.20
52036;DHT22;38046;49.448;32.074;2023-04-20T03:01:48;10.50;90.20
52036;DHT22;38046;49.448;32.074;2023-04-20T03:04:14;10.50;90.20
52036;DHT22;38046;49.448;32.074;2023-04-20T03:06:40;10.50;90.30
52036;DHT22;38046;49.448;32.074;2023-04-20T03:09:07;10.50;90.40
52036;DHT22;38046;49.448;32.074;2023-04-20T03:11:33;10.50;90.40
52036;DHT22;38046;49.448;32.074;2023-04-20T03:13:58;10.50;90.40
52036;DHT22;38046;49.448;32.074;2023-04-20T03:16:24;10.50;90.40
52036;DHT22;38046;49.448;32.074;2023-04-20T03:18:50;10.50;90.40
52036;DHT22;38046;49.448;32.074;2023-04-20T03:21:16;10.50;90.40
52036;DHT22;38046;49.448;32.074;2023-04-20T03:23:41;10.50;90.30
52036;DHT22;38046;49.448;32.074;2023-04-20T03:26:07;10.50;90.40
52036;DHT22;38046;49.448;32.074;2023-04-20T03:28:32;10.50;90.40
52036;DHT22;38046;49.448;32.074;2023-04-20T03:30:58;10.50;90.40
52036;DHT22;38046;49.448;32.074;2023-04-20T03:33:25;10.50;90.40
52036;DHT22;38046;49.448;32.074;2023-04-20T03:35:52;10.50;90.40
52036;DHT22;38046;49.448;32.074;2023-04-20T03:38:18;10.50;90.40
52036;DHT22;38046;49.448;32.074;2023-04-20T03:40:43;10.50;90.40
52036;DHT22;38046;49.448;32.074;2023-04-20T03:43:09;10.50;90.40
52036;DHT22;38046;49.448;32.074;2023-04-20T03:45:36;10.50;90.40
52036;DHT22;38046;49.448;32.074;2023-04-20T03:48:02;10.50;90.50
52036;DHT22;38046;49.448;32.074;2023-04-20T03:50:27;10.50;90.50
52036;DHT22;38046;49.448;32.074;2023-04-20T03:52:53;10.50;90.50
52036;DHT22;38046;49.448;32.074;2023-04-20T03:55:19;10.50;90.50
52036;DHT22;38046;49.448;32.074;2023-04-20T03:57:44;10.50;90.50
52036;DHT22;38046;49.448;32.074;2023-04-20T04:00:10;10.50;90.50
52036;DHT22;38046;49.448;32.074;2023-04-20T04:02:36;10.50;90.60
52036;DHT22;38046;49.448;32.074;2023-04-20T04:05:02;10.50;90.80
52036;DHT22;38046;49.448;32.074;2023-04-20T04:07:28;10.50;90.90
52036;DHT22;38046;49.448;32.074;2023-04-20T04:09:53;10.40;91.00
52036;DHT22;38046;49.448;32.074;2023-04-20T04:12:19;10.40;91.20
52036;DHT22;38046;49.448;32.074;2023-04-20T04:14:45;10.40;91.50
52036;DHT22;38046;49.448;32.074;2023-04-20T04:17:13;10.30;91.70
52036;DHT22;38046;49.448;32.074;2023-04-20T04:19:38;10.30;92.00
52036;DHT22;38046;49.448;32.074;2023-04-20T04:22:04;10.30;92.20
52036;DHT22;38046;49.448;32.074;2023-04-20T04:24:30;10.30;92.40
52036;DHT22;38046;49.448;32.074;2023-04-20T04:26:57;10.30;92.60
52036;DHT22;38046;49.448;32.074;2023-04-20T04:29:24;10.20;92.70
52036;DHT22;38046;49.448;32.074;2023-04-20T04:31:53;10.20;93.00
52036;DHT22;38046;49.448;32.074;2023-04-20T04:34:18;10.20;93.20
52036;DHT22;38046;49.448;32.074;2023-04-20T04:36:44;10.20;93.30
52036;DHT22;38046;49.448;32.074;2023-04-20T04:39:11;10.20;93.60
52036;DHT22;38046;49.448;32.074;2023-04-20T04:41:37;10.20;93.90
52036;DHT22;38046;49.448;32.074;2023-04-20T04:44:03;10.10;94.00
52036;DHT22;38046;49.448;32.074;2023-04-20T04:46:30;10.10;94.20
52036;DHT22;38046;49.448;32.074;2023-04-20T04:48:56;10.20;94.50
52036;DHT22;38046;49.448;32.074;2023-04-20T04:51:25;10.20;94.60
52036;DHT22;38046;49.448;32.074;2023-04-20T04:53:51;10.10;94.80
52036;DHT22;38046;49.448;32.074;2023-04-20T04:56:16;10.10;94.90
52036;DHT22;38046;49.448;32.074;2023-04-20T04:58:43;10.10;95.20
52036;DHT22;38046;49.448;32.074;2023-04-20T05:01:10;10.10;95.30
52036;DHT22;38046;49.448;32.074;2023-04-20T05:03:36;10.10;95.40
52036;DHT22;38046;49.448;32.074;2023-04-20T05:06:01;10.10;95.40
52036;DHT22;38046;49.448;32.074;2023-04-20T05:08:27;10.10;95.40
52036;DHT22;38046;49.448;32.074;2023-04-20T05:10:53;10.10;95.40
52036;DHT22;38046;49.448;32.074;2023-04-20T05:13:18;10.20;95.50
52036;DHT22;38046;49.448;32.074;2023-04-20T05:15:44;10.20;95.50
52036;DHT22;38046;49.448;32.074;2023-04-20T05:18:10;10.20;95.40
52036;DHT22;38046;49.448;32.074;2023-04-20T05:20:36;10.20;95.30
52036;DHT22;38046;49.448;32.074;2023-04-20T05:23:01;10.20;95.40
52036;DHT22;38046;49.448;32.074;2023-04-20T05:25:27;10.20;95.40
52036;DHT22;38046;49.448;32.074;2023-04-20T05:27:53;10.30;95.40
52036;DHT22;38046;49.448;32.074;2023-04-20T05:30:18;10.30;95.30
52036;DHT22;38046;49.448;32.074;2023-04-20T05:32:44;10.20;95.40
52036;DHT22;38046;49.448;32.074;2023-04-20T05:35:10;10.20;95.40
52036;DHT22;38046;49.448;32.074;2023-04-20T05:37:35;10.20;95.40
52036;DHT22;38046;49.448;32.074;2023-04-20T05:40:01;10.20;95.50
52036;DHT22;38046;49.448;32.074;2023-04-20T05:42:26;10.20;95.30
52036;DHT22;38046;49.448;32.074;2023-04-20T05:44:52;10.20;95.40
52036;DHT22;38046;49.448;32.074;2023-04-20T05:47:18;10.20;95.30
52036;DHT22;38046;49.448;32.074;2023-04-20T05:49:43;10.20;95.20
52036;DHT22;38046;49.448;32.074;2023-04-20T05:52:10;10.20;95.30
52036;DHT22;38046;49.448;32.074;2023-04-20T05:54:36;10.30;95.30
52036;DHT22;38046;49.448;32.074;2023-04-20T05:57:01;10.30;95.30
52036;DHT22;38046;49.448;32.074;2023-04-20T05:59:29;10.30;95.30
52036;DHT22;38046;49.448;32.074;2023-04-20T06:01:55;10.30;95.20
52036;DHT22;38046;49.448;32.074;2023-04-20T06:04:21;10.30;95.20
52036;DHT22;38046;49.448;32.074;2023-04-20T06:06:47;10.30;95.40
52036;DHT22;38046;49.448;32.074;2023-04-20T06:09:12;10.30;95.30
52036;DHT22;38046;49.448;32.074;2023-04-20T06:11:38;10.30;95.30
52036;DHT22;38046;49.448;32.074;2023-04-20T06:14:04;10.30;95.40
52036;DHT22;38046;49.448;32.074;2023-04-20T06:16:30;10.30;95.40
52036;DHT22;38046;49.448;32.074;2023-04-20T06:18:55;10.30;95.50
52036;DHT22;38046;49.448;32.074;2023-04-20T06:21:21;10.30;95.60
52036;DHT22;38046;49.448;32.074;2023-04-20T06:23:48;10.20;95.70
52036;DHT22;38046;49.448;32.074;2023-04-20T06:26:14;10.30;95.90
52036;DHT22;38046;49.448;32.074;2023-04-20T06:28:40;10.30;96.00
52036;DHT22;38046;49.448;32.074;2023-04-20T06:31:06;10.30;96.00
52036;DHT22;38046;49.448;32.074;2023-04-20T06:33:31;10.30;96.10
52036;DHT22;38046;49.448;32.074;2023-04-20T06:35:57;10.30;96.00
52036;DHT22;38046;49.448;32.074;2023-04-20T06:38:23;10.30;96.10
52036;DHT22;38046;49.448;32.074;2023-04-20T06:40:52;10.30;96.40
52036;DHT22;38046;49.448;32.074;2023-04-20T06:43:18;10.30;96.30
52036;DHT22;38046;49.448;32.074;2023-04-20T06:45:43;10.30;96.60
52036;DHT22;38046;49.448;32.074;2023-04-20T06:48:09;10.30;96.70
52036;DHT22;38046;49.448;32.074;2023-04-20T06:50:35;10.30;96.80
52036;DHT22;38046;49.448;32.074;2023-04-20T06:53:02;10.30;97.00
52036;DHT22;38046;49.448;32.074;2023-04-20T06:55:28;10.30;97.00
52036;DHT22;38046;49.448;32.074;2023-04-20T06:57:54;10.30;97.10
52036;DHT22;38046;49.448;32.074;2023-04-20T07:00:19;10.30;97.10
52036;DHT22;38046;49.448;32.074;2023-04-20T07:02:49;10.30;97.10
52036;DHT22;38046;49.448;32.074;2023-04-20T07:05:16;10.40;97.10
52036;DHT22;38046;49.448;32.074;2023-04-20T07:07:42;10.40;97.10
52036;DHT22;38046;49.448;32.074;2023-04-20T07:10:10;10.40;97.10
52036;DHT22;38046;49.448;32.074;2023-04-20T07:12:37;10.40;97.30
52036;DHT22;38046;49.448;32.074;2023-04-20T07:15:03;10.40;97.30
52036;DHT22;38046;49.448;32.074;2023-04-20T07:17:29;10.40;97.40
52036;DHT22;38046;49.448;32.074;2023-04-20T07:19:55;10.40;97.40
52036;DHT22;38046;49.448;32.074;2023-04-20T07:22:21;10.40;97.40
52036;DHT22;38046;49.448;32.074;2023-04-20T07:24:47;10.40;97.50
52036;DHT22;38046;49.448;32.074;2023-04-20T07:27:12;10.40;97.50
52036;DHT22;38046;49.448;32.074;2023-04-20T07:29:38;10.40;97.50
52036;DHT22;38046;49.448;32.074;2023-04-20T07:32:04;10.40;97.50
52036;DHT22;38046;49.448;32.074;2023-04-20T07:34:30;10.40;97.50
52036;DHT22;38046;49.448;32.074;2023-04-20T07:36:55;10.40;97.50
52036;DHT22;38046;49.448;32.074;2023-04-20T07:39:21;10.40;97.70
52036;DHT22;38046;49.448;32.074;2023-04-20T07:41:47;10.40;97.90
52036;DHT22;38046;49.448;32.074;2023-04-20T07:44:13;10.40;98.00
52036;DHT22;38046;49.448;32.074;2023-04-20T07:46:42;10.40;98.20
52036;DHT22;38046;49.448;32.074;2023-04-20T07:49:07;10.40;98.40
52036;DHT22;38046;49.448;32.074;2023-04-20T07:51:33;10.50;98.40
52036;DHT22;38046;49.448;32.074;2023-04-20T07:53:59;10.50;98.50
52036;DHT22;38046;49.448;32.074;2023-04-20T07:56:25;10.50;98.50
52036;DHT22;38046;49.448;32.074;2023-04-20T07:58:51;10.50;98.40
52036;DHT22;38046;49.448;32.074;2023-04-20T08:01:17;10.60;98.40
52036;DHT22;38046;49.448;32.074;2023-04-20T08:03:42;10.60;98.30
52036;DHT22;38046;49.448;32.074;2023-04-20T08:06:09;10.60;98.50
52036;DHT22;38046;49.448;32.074;2023-04-20T08:08:35;10.60;98.60
52036;DHT22;38046;49.448;32.074;2023-04-20T08:11:00;10.60;98.60
52036;DHT22;38046;49.448;32.074;2023-04-20T08:13:26;10.60;98.60
52036;DHT22;38046;49.448;32.074;2023-04-20T08:15:52;10.60;98.50
52036;DHT22;38046;49.448;32.074;2023-04-20T08:18:18;10.60;98.40
52036;DHT22;38046;49.448;32.074;2023-04-20T08:20:44;10.60;98.50
52036;DHT22;38046;49.448;32.074;2023-04-20T08:23:10;10.60;98.50
52036;DHT22;38046;49.448;32.074;2023-04-20T08:25:38;10.60;98.50
52036;DHT22;38046;49.448;32.074;2023-04-20T08:31:04;10.60;97.60
52036;DHT22;38046;49.448;32.074;2023-04-20T08:33:30;10.60;97.90
52036;DHT22;38046;49.448;32.074;2023-04-20T08:35:56;10.60;98.10
52036;DHT22;38046;49.448;32.074;2023-04-20T08:38:21;10.60;98.40
52036;DHT22;38046;49.448;32.074;2023-04-20T08:42:46;10.50;98.70
52036;DHT22;38046;49.448;32.074;2023-04-20T08:45:12;10.60;98.70
52036;DHT22;38046;49.448;32.074;2023-04-20T08:47:39;10.60;98.90
52036;DHT22;38046;49.448;32.074;2023-04-20T08:50:07;10.60;98.80
52036;DHT22;38046;49.448;32.074;2023-04-20T08:52:33;10.60;98.80
52036;DHT22;38046;49.448;32.074;2023-04-20T08:55:00;10.60;98.90
52036;DHT22;38046;49.448;32.074;2023-04-20T08:57:26;10.60;99.00
52036;DHT22;38046;49.448;32.074;2023-04-20T08:59:51;10.60;98.90
52036;DHT22;38046;49.448;32.074;2023-04-20T09:02:17;10.70;98.80
52036;DHT22;38046;49.448;32.074;2023-04-20T09:04:43;10.70;98.90
52036;DHT22;38046;49.448;32.074;2023-04-20T09:07:17;10.70;98.90
52036;DHT22;38046;49.448;32.074;2023-04-20T09:09:57;10.80;98.80
52036;DHT22;38046;49.448;32.074;2023-04-20T09:12:23;10.80;98.60
52036;DHT22;38046;49.448;32.074;2023-04-20T09:14:50;10.80;98.60
52036;DHT22;38046;49.448;32.074;2023-04-20T09:17:17;10.90;98.40
52036;DHT22;38046;49.448;32.074;2023-04-20T09:19:45;10.90;98.30
52036;DHT22;38046;49.448;32.074;2023-04-20T09:22:10;10.90;98.20
52036;DHT22;38046;49.448;32.074;2023-04-20T09:24:38;10.90;98.20
52036;DHT22;38046;49.448;32.074;2023-04-20T09:27:17;11.00;97.90
52036;DHT22;38046;49.448;32.074;2023-04-20T09:29:43;10.90;97.70
52036;DHT22;38046;49.448;32.074;2023-04-20T09:32:22;11.00;97.90
52036;DHT22;38046;49.448;32.074;2023-04-20T09:34:48;11.00;97.90
52036;DHT22;38046;49.448;32.074;2023-04-20T09:37:14;11.00;97.90
52036;DHT22;38046;49.448;32.074;2023-04-20T09:39:42;11.10;97.80
52036;DHT22;38046;49.448;32.074;2023-04-20T09:42:11;11.10;97.70
52036;DHT22;38046;49.448;32.074;2023-04-20T09:44:38;11.10;97.60
52036;DHT22;38046;49.448;32.074;2023-04-20T09:47:04;11.10;97.40
52036;DHT22;38046;49.448;32.074;2023-04-20T09:49:31;11.20;97.50
52036;DHT22;38046;49.448;32.074;2023-04-20T09:51:59;11.20;97.20
52036;DHT22;38046;49.448;32.074;2023-04-20T09:54:26;11.20;97.20
52036;DHT22;38046;49.448;32.074;2023-04-20T09:56:52;11.30;97.10
52036;DHT22;38046;49.448;32.074;2023-04-20T09:59:20;11.30;96.80
52036;DHT22;38046;49.448;32.074;2023-04-20T10:01:46;11.30;96.60
52036;DHT22;38046;49.448;32.074;2023-04-20T10:04:12;11.30;96.70
52036;DHT22;38046;49.448;32.074;2023-04-20T10:06:39;11.30;96.60
52036;DHT22;38046;49.448;32.074;2023-04-20T10:09:24;11.40;96.50
52036;DHT22;38046;49.448;32.074;2023-04-20T10:11:52;11.40;96.40
52036;DHT22;38046;49.448;32.074;2023-04-20T10:14:29;11.40;96.20
52036;DHT22;38046;49.448;32.074;2023-04-20T10:17:07;11.40;96.20
52036;DHT22;38046;49.448;32.074;2023-04-20T10:19:40;11.50;96.00
52036;DHT22;38046;49.448;32.074;2023-04-20T10:22:06;11.50;95.90
52036;DHT22;38046;49.448;32.074;2023-04-20T10:24:32;11.50;95.90
52036;DHT22;38046;49.448;32.074;2023-04-20T10:26:58;11.50;95.80
52036;DHT22;38046;49.448;32.074;2023-04-20T10:29:27;11.50;95.80
52036;DHT22;38046;49.448;32.074;2023-04-20T10:31:56;11.50;95.70
52036;DHT22;38046;49.448;32.074;2023-04-20T10:34:35;11.50;95.60
52036;DHT22;38046;49.448;32.074;2023-04-20T10:37:12;11.60;95.50
52036;DHT22;38046;49.448;32.074;2023-04-20T10:39:47;11.50;95.50
52036;DHT22;38046;49.448;32.074;2023-04-20T10:42:13;11.50;95.50
52036;DHT22;38046;49.448;32.074;2023-04-20T10:44:52;11.50;95.60
52036;DHT22;38046;49.448;32.074;2023-04-20T10:47:31;11.50;95.60
52036;DHT22;38046;49.448;32.074;2023-04-20T10:50:13;11.60;95.60
52036;DHT22;38046;49.448;32.074;2023-04-20T10:52:41;11.50;95.50
52036;DHT22;38046;49.448;32.074;2023-04-20T10:55:24;11.50;95.50
52036;DHT22;38046;49.448;32.074;2023-04-20T10:57:50;11.60;95.50
52036;DHT22;38046;49.448;32.074;2023-04-20T11:00:24;11.60;95.70
52036;DHT22;38046;49.448;32.074;2023-04-20T11:02:52;11.60;95.70
52036;DHT22;38046;49.448;32.074;2023-04-20T11:05:18;11.50;95.70
52036;DHT22;38046;49.448;32.074;2023-04-20T11:07:51;11.50;95.80
52036;DHT22;38046;49.448;32.074;2023-04-20T11:10:17;11.50;95.80
52036;DHT22;38046;49.448;32.074;2023-04-20T11:12:43;11.50;95.90
52036;DHT22;38046;49.448;32.074;2023-04-20T11:15:09;11.50;96.00
52036;DHT22;38046;49.448;32.074;2023-04-20T11:17:36;11.50;96.20
52036;DHT22;38046;49.448;32.074;2023-04-20T11:20:07;11.50;96.30
52036;DHT22;38046;49.448;32.074;2023-04-20T11:22:35;11.50;96.20
52036;DHT22;38046;49.448;32.074;2023-04-20T11:25:07;11.50;96.20
52036;DHT22;38046;49.448;32.074;2023-04-20T11:27:37;11.50;96.20
52036;DHT22;38046;49.448;32.074;2023-04-20T11:30:04;11.50;96.20
52036;DHT22;38046;49.448;32.074;2023-04-20T11:32:33;11.50;96.30
52036;DHT22;38046;49.448;32.074;2023-04-20T11:35:05;11.50;96.30
52036;DHT22;38046;49.448;32.074;2023-04-20T11:37:33;11.50;96.40
52036;DHT22;38046;49.448;32.074;2023-04-20T11:40:03;11.40;96.60
52036;DHT22;38046;49.448;32.074;2023-04-20T11:42:31;11.40;96.80
52036;DHT22;38046;49.448;32.074;2023-04-20T11:44:58;11.40;97.00
52036;DHT22;38046;49.448;32.074;2023-04-20T11:47:24;11.40;97.00
52036;DHT22;38046;49.448;32.074;2023-04-20T11:49:49;11.40;97.00
52036;DHT22;38046;49.448;32.074;2023-04-20T11:52:15;11.40;97.00
52036;DHT22;38046;49.448;32.074;2023-04-20T11:54:41;11.40;97.00
52036;DHT22;38046;49.448;32.074;2023-04-20T11:57:07;11.40;97.10
52036;DHT22;38046;49.448;32.074;2023-04-20T11:59:33;11.40;97.00
52036;DHT22;38046;49.448;32.074;2023-04-20T12:01:58;11.40;97.00
52036;DHT22;38046;49.448;32.074;2023-04-20T12:04:31;11.40;96.80
52036;DHT22;38046;49.448;32.074;2023-04-20T12:06:57;11.40;96.70
52036;DHT22;38046;49.448;32.074;2023-04-20T12:09:24;11.40;96.60
52036;DHT22;38046;49.448;32.074;2023-04-20T12:11:50;11.40;96.60
52036;DHT22;38046;49.448;32.074;2023-04-20T12:14:16;11.40;96.60
52036;DHT22;38046;49.448;32.074;2023-04-20T12:16:41;11.40;96.50
52036;DHT22;38046;49.448;32.074;2023-04-20T12:19:07;11.40;96.50
52036;DHT22;38046;49.448;32.074;2023-04-20T12:21:33;11.40;96.60
52036;DHT22;38046;49.448;32.074;2023-04-20T12:23:59;11.40;96.50
52036;DHT22;38046;49.448;32.074;2023-04-20T12:26:25;11.40;96.30
52036;DHT22;38046;49.448;32.074;2023-04-20T12:28:51;11.30;96.10
52036;DHT22;38046;49.448;32.074;2023-04-20T12:31:16;11.30;95.80
52036;DHT22;38046;49.448;32.074;2023-04-20T12:33:42;11.20;95.50
52036;DHT22;38046;49.448;32.074;2023-04-20T12:36:09;11.30;95.50
52036;DHT22;38046;49.448;32.074;2023-04-20T12:38:35;11.20;95.30
52036;DHT22;38046;49.448;32.074;2023-04-20T12:41:01;11.20;95.10
52036;DHT22;38046;49.448;32.074;2023-04-20T12:43:29;11.20;95.10
52036;DHT22;38046;49.448;32.074;2023-04-20T12:45:55;11.10;94.90
52036;DHT22;38046;49.448;32.074;2023-04-20T12:48:21;11.10;95.10
52036;DHT22;38046;49.448;32.074;2023-04-20T12:50:46;11.10;95.10
52036;DHT22;38046;49.448;32.074;2023-04-20T12:53:12;11.10;95.30
52036;DHT22;38046;49.448;32.074;2023-04-20T12:55:38;11.10;95.20
52036;DHT22;38046;49.448;32.074;2023-04-20T12:58:04;11.10;95.30
52036;DHT22;38046;49.448;32.074;2023-04-20T13:00:30;11.10;95.40
52036;DHT22;38046;49.448;32.074;2023-04-20T13:02:56;11.10;95.50
52036;DHT22;38046;49.448;32.074;2023-04-20T13:05:21;11.10;95.50
52036;DHT22;38046;49.448;32.074;2023-04-20T13:07:47;11.10;95.60
52036;DHT22;38046;49.448;32.074;2023-04-20T13:10:12;11.10;95.60
52036;DHT22;38046;49.448;32.074;2023-04-20T13:12:38;11.10;95.70
52036;DHT22;38046;49.448;32.074;2023-04-20T13:15:06;11.10;95.60
52036;DHT22;38046;49.448;32.074;2023-04-20T13:17:33;11.10;95.60
52036;DHT22;38046;49.448;32.074;2023-04-20T13:19:59;11.10;95.40
52036;DHT22;38046;49.448;32.074;2023-04-20T13:22:24;11.10;95.30
52036;DHT22;38046;49.448;32.074;2023-04-20T13:24:50;11.10;95.20
52036;DHT22;38046;49.448;32.074;2023-04-20T13:27:16;11.10;95.20
52036;DHT22;38046;49.448;32.074;2023-04-20T13:29:41;11.10;95.20
52036;DHT22;38046;49.448;32.074;2023-04-20T13:32:08;11.10;95.30
52036;DHT22;38046;49.448;32.074;2023-04-20T13:34:34;11.10;95.30
52036;DHT22;38046;49.448;32.074;2023-04-20T13:37:00;11.10;95.30
52036;DHT22;38046;49.448;32.074;2023-04-20T13:39:25;11.10;95.20
52036;DHT22;38046;49.448;32.074;2023-04-20T13:41:52;11.10;95.30
52036;DHT22;38046;49.448;32.074;2023-04-20T13:44:18;11.10;95.30
52036;DHT22;38046;49.448;32.074;2023-04-20T13:46:45;11.10;95.40
52036;DHT22;38046;49.448;32.074;2023-04-20T13:49:11;11.10;95.30
52036;DHT22;38046;49.448;32.074;2023-04-20T13:51:39;11.10;95.50
52036;DHT22;38046;49.448;32.074;2023-04-20T13:54:05;11.10;95.80
52036;DHT22;38046;49.448;32.074;2023-04-20T13:56:34;11.10;95.90
52036;DHT22;38046;49.448;32.074;2023-04-20T13:59:00;11.10;95.90
52036;DHT22;38046;49.448;32.074;2023-04-20T14:01:28;11.00;95.90
52036;DHT22;38046;49.448;32.074;2023-04-20T14:03:54;11.00;95.90
52036;DHT22;38046;49.448;32.074;2023-04-20T14:06:20;11.00;96.10
52036;DHT22;38046;49.448;32.074;2023-04-20T14:08:45;11.00;96.10
52036;DHT22;38046;49.448;32.074;2023-04-20T14:11:11;11.00;96.30
52036;DHT22;38046;49.448;32.074;2023-04-20T14:13:37;10.90;96.40
52036;DHT22;38046;49.448;32.074;2023-04-20T14:16:10;10.90;96.60
52036;DHT22;38046;49.448;32.074;2023-04-20T14:18:36;10.90;96.60
52036;DHT22;38046;49.448;32.074;2023-04-20T14:21:02;10.80;96.90
52036;DHT22;38046;49.448;32.074;2023-04-20T14:23:29;10.80;96.90
52036;DHT22;38046;49.448;32.074;2023-04-20T14:25:55;10.80;97.10
52036;DHT22;38046;49.448;32.074;2023-04-20T14:28:21;10.80;97.30
52036;DHT22;38046;49.448;32.074;2023-04-20T14:30:47;10.80;97.30
52036;DHT22;38046;49.448;32.074;2023-04-20T14:33:12;10.80;97.30
52036;DHT22;38046;49.448;32.074;2023-04-20T14:35:38;10.80;97.20
52036;DHT22;38046;49.448;32.074;2023-04-20T14:38:04;10.80;97.30
52036;DHT22;38046;49.448;32.074;2023-04-20T14:40:30;10.70;97.30
52036;DHT22;38046;49.448;32.074;2023-04-20T14:42:56;10.70;97.40
52036;DHT22;38046;49.448;32.074;2023-04-20T14:45:22;10.70;97.40
52036;DHT22;38046;49.448;32.074;2023-04-20T14:47:55;10.70;97.30
52036;DHT22;38046;49.448;32.074;2023-04-20T14:50:23;10.70;97.00
52036;DHT22;38046;49.448;32.074;2023-04-20T14:52:52;10.70;97.00
52036;DHT22;38046;49.448;32.074;2023-04-20T14:55:18;10.70;97.10
52036;DHT22;38046;49.448;32.074;2023-04-20T14:57:48;10.70;96.90
52036;DHT22;38046;49.448;32.074;2023-04-20T15:00:14;10.60;96.90
52036;DHT22;38046;49.448;32.074;2023-04-20T15:02:40;10.60;96.90
52036;DHT22;38046;49.448;32.074;2023-04-20T15:05:07;10.60;97.10
52036;DHT22;38046;49.448;32.074;2023-04-20T15:07:33;10.60;97.20
52036;DHT22;38046;49.448;32.074;2023-04-20T15:09:58;10.60;97.30
52036;DHT22;38046;49.448;32.074;2023-04-20T15:12:24;10.50;97.60
52036;DHT22;38046;49.448;32.074;2023-04-20T15:14:50;10.50;97.50
52036;DHT22;38046;49.448;32.074;2023-04-20T15:17:15;10.50;97.40